createdAt,value
2019-02-28T00:01:43.202Z,72.30
2019-02-28T00:04:11.108Z,75.70
2019-02-28T00:06:38.951Z,78.37
2019-02-28T00:09:08.903Z,77.03
2019-02-28T00:11:39.451Z,66.07
2019-02-28T00:14:08.223Z,68.50
2019-02-28T00:16:36.426Z,68.27
2019-02-28T00:19:04.740Z,72.53
2019-02-28T00:21:32.710Z,78.10
2019-02-28T00:24:00.682Z,77.47
2019-02-28T00:26:28.488Z,75.53
2019-02-28T00:28:56.961Z,74.23
2019-02-28T00:31:26.117Z,79.00
2019-02-28T00:33:55.064Z,83.50
2019-02-28T00:36:24.241Z,79.80
2019-02-28T00:38:52.030Z,79.47
2019-02-28T00:41:19.802Z,78.10
2019-02-28T00:43:48.055Z,78.17
2019-02-28T00:46:16.025Z,83.10
2019-02-28T00:48:44.391Z,76.47
2019-02-28T00:51:12.367Z,89.47
2019-02-28T00:53:40.490Z,73.80
2019-02-28T00:56:08.624Z,75.20
2019-02-28T00:58:36.674Z,78.77
2019-02-28T01:01:08.371Z,79.17
2019-02-28T01:03:36.486Z,75.70
2019-02-28T01:06:09.771Z,80.53
2019-02-28T01:08:34.806Z,75.03
2019-02-28T01:11:03.201Z,83.70
2019-02-28T01:13:33.373Z,81.33
2019-02-28T01:16:02.771Z,75.13
2019-02-28T01:18:34.467Z,85.73
2019-02-28T01:21:02.260Z,74.57
2019-02-28T01:23:30.249Z,74.27
2019-02-28T01:25:58.365Z,83.57
2019-02-28T01:28:27.645Z,74.03
2019-02-28T01:30:56.743Z,77.70
2019-02-28T01:33:25.640Z,75.97
2019-02-28T01:35:56.675Z,88.90
2019-02-28T01:38:25.179Z,79.80
2019-02-28T01:40:53.695Z,82.83
2019-02-28T01:43:21.584Z,83.43
2019-02-28T01:45:52.038Z,80.23
2019-02-28T01:48:22.601Z,85.90
2019-02-28T01:50:51.668Z,78.77
2019-02-28T01:53:19.761Z,79.83
2019-02-28T01:55:48.849Z,85.77
2019-02-28T01:58:18.816Z,83.50
2019-02-28T02:00:48.998Z,83.43
2019-02-28T02:03:16.994Z,78.27
2019-02-28T02:05:48.270Z,86.87
2019-02-28T02:08:17.832Z,78.00
2019-02-28T02:10:45.720Z,87.10
2019-02-28T02:13:13.791Z,84.83
2019-02-28T02:15:43.294Z,79.47
2019-02-28T02:18:11.064Z,84.77
2019-02-28T02:20:39.038Z,85.27
2019-02-28T02:23:06.964Z,83.97
2019-02-28T02:25:36.965Z,85.17
2019-02-28T02:28:04.422Z,80.00
2019-02-28T02:30:32.373Z,80.37
2019-02-28T02:33:00.152Z,81.97
2019-02-28T02:35:28.122Z,79.83
2019-02-28T02:37:55.920Z,86.67
2019-02-28T02:40:24.331Z,93.53
2019-02-28T02:42:54.173Z,90.40
2019-02-28T02:45:22.253Z,84.20
2019-02-28T02:47:50.029Z,84.60
2019-02-28T02:50:18.105Z,85.37
2019-02-28T02:52:46.077Z,92.03
2019-02-28T02:55:14.161Z,88.90
2019-02-28T02:57:43.150Z,91.67
2019-02-28T03:00:16.106Z,84.77
2019-02-28T03:02:43.917Z,93.00
2019-02-28T03:05:12.004Z,93.10
2019-02-28T03:07:39.894Z,88.57
2019-02-28T03:10:09.732Z,94.97
2019-02-28T03:12:37.498Z,97.27
2019-02-28T03:15:06.063Z,104.03
2019-02-28T03:17:33.992Z,92.47
2019-02-28T03:20:01.969Z,94.23
2019-02-28T03:22:30.416Z,106.20
2019-02-28T03:24:58.298Z,92.10
2019-02-28T03:27:26.232Z,97.03
2019-02-28T03:29:54.009Z,92.27
2019-02-28T03:32:21.782Z,103.90
2019-02-28T03:34:58.059Z,99.50
2019-02-28T03:37:19.391Z,100.90
2019-02-28T03:39:47.212Z,106.80
2019-02-28T03:42:15.073Z,105.00
2019-02-28T03:44:44.093Z,96.97
2019-02-28T03:47:12.236Z,103.13
2019-02-28T03:49:40.036Z,106.53
2019-02-28T03:52:07.834Z,106.30
2019-02-28T03:54:35.741Z,107.07
2019-02-28T03:57:03.527Z,103.63
2019-02-28T03:59:31.305Z,103.93
2019-02-28T04:01:59.258Z,113.03
2019-02-28T04:04:29.076Z,107.20
2019-02-28T04:06:56.828Z,118.00
2019-02-28T04:09:24.618Z,111.57
2019-02-28T04:11:52.794Z,107.83
2019-02-28T04:14:20.577Z,111.90
2019-02-28T04:16:52.710Z,111.50
2019-02-28T04:19:22.611Z,125.93
2019-02-28T04:21:47.973Z,116.23
2019-02-28T04:24:15.933Z,122.33
2019-02-28T04:26:43.706Z,124.73
2019-02-28T04:29:12.694Z,114.30
2019-02-28T04:31:41.573Z,114.47
2019-02-28T04:34:12.974Z,117.97
2019-02-28T04:36:39.206Z,126.70
2019-02-28T04:39:07.025Z,118.13
2019-02-28T04:41:35.063Z,120.00
2019-02-28T04:44:03.300Z,114.10
2019-02-28T04:46:31.801Z,126.37
2019-02-28T04:49:00.679Z,125.63
2019-02-28T04:51:28.608Z,119.87
2019-02-28T04:53:56.447Z,124.03
2019-02-28T04:56:24.402Z,127.63
2019-02-28T04:58:56.456Z,123.80
2019-02-28T05:01:23.643Z,124.33
2019-02-28T05:03:52.750Z,115.77
2019-02-28T05:06:21.182Z,130.10
2019-02-28T05:08:49.860Z,128.17
2019-02-28T05:11:17.794Z,132.27
2019-02-28T05:13:48.858Z,127.17
2019-02-28T05:16:16.676Z,139.73
2019-02-28T05:18:44.764Z,138.40
2019-02-28T05:21:12.531Z,127.37
2019-02-28T05:23:40.493Z,135.60
2019-02-28T05:26:09.877Z,138.40
2019-02-28T05:28:41.207Z,146.63
2019-02-28T05:31:08.731Z,135.73
2019-02-28T05:33:38.453Z,149.70
2019-02-28T05:36:06.419Z,144.50
2019-02-28T05:38:34.185Z,136.90
2019-02-28T05:41:03.148Z,144.50
2019-02-28T05:43:32.172Z,147.30
2019-02-28T05:46:00.717Z,140.57
2019-02-28T05:48:28.494Z,163.20
2019-02-28T05:50:56.499Z,158.87
2019-02-28T05:53:24.685Z,151.93
2019-02-28T05:55:52.855Z,151.30
2019-02-28T05:58:21.004Z,147.73
2019-02-28T06:00:50.651Z,164.00
2019-02-28T06:03:18.410Z,164.63
2019-02-28T06:05:47.084Z,175.53
2019-02-28T06:08:15.279Z,172.77
2019-02-28T06:10:43.056Z,159.23
2019-02-28T06:13:10.821Z,164.53
2019-02-28T06:15:38.732Z,153.23
2019-02-28T06:18:06.488Z,163.43
2019-02-28T06:20:34.277Z,151.13
2019-02-28T06:23:02.200Z,155.27
2019-02-28T06:25:31.125Z,162.43
2019-02-28T06:28:00.294Z,158.73
2019-02-28T06:30:28.078Z,166.80
2019-02-28T06:32:59.223Z,163.50
2019-02-28T06:35:25.956Z,171.07
2019-02-28T06:37:53.743Z,157.07
2019-02-28T06:40:22.604Z,159.53
2019-02-28T06:42:50.595Z,149.57
2019-02-28T06:45:18.379Z,150.67
2019-02-28T06:47:49.524Z,149.17
2019-02-28T06:50:16.360Z,140.60
2019-02-28T06:52:44.158Z,132.47
2019-02-28T06:55:15.875Z,134.87
2019-02-28T06:57:43.863Z,131.10
2019-02-28T07:00:13.515Z,131.83
2019-02-28T07:02:41.579Z,130.40
2019-02-28T07:05:09.527Z,135.03
2019-02-28T07:07:37.305Z,130.53
2019-02-28T07:10:09.624Z,128.30
2019-02-28T07:12:36.955Z,120.43
2019-02-28T07:15:05.527Z,127.43
2019-02-28T07:17:33.483Z,129.67
2019-02-28T07:20:03.135Z,142.80
2019-02-28T07:22:31.015Z,126.63
2019-02-28T07:24:58.938Z,122.70
2019-02-28T07:27:29.729Z,127.80
2019-02-28T07:29:56.443Z,122.00
2019-02-28T07:32:26.154Z,126.50
2019-02-28T07:34:58.087Z,115.77
2019-02-28T07:37:25.147Z,113.43
2019-02-28T07:39:52.915Z,107.63
2019-02-28T07:42:20.678Z,111.13
2019-02-28T07:44:48.682Z,118.60
2019-02-28T07:47:17.525Z,113.00
2019-02-28T07:49:46.347Z,117.27
2019-02-28T07:52:14.119Z,114.63
2019-02-28T07:54:42.204Z,114.73
2019-02-28T07:57:09.991Z,108.47
2019-02-28T07:59:42.301Z,101.30
2019-02-28T08:02:07.646Z,94.00
2019-02-28T08:04:35.424Z,99.90
2019-02-28T08:07:03.572Z,105.97
2019-02-28T08:09:31.593Z,100.50
2019-02-28T08:11:59.382Z,100.67
2019-02-28T08:14:27.152Z,108.27
2019-02-28T08:16:55.085Z,103.97
2019-02-28T08:19:27.017Z,112.47
2019-02-28T08:21:54.020Z,98.47
2019-02-28T08:24:21.965Z,97.23
2019-02-28T08:26:50.692Z,100.63
2019-02-28T08:29:19.557Z,92.23
2019-02-28T08:31:47.328Z,95.90
2019-02-28T08:34:15.331Z,91.63
2019-02-28T08:36:43.881Z,92.63
2019-02-28T08:39:16.191Z,96.47
2019-02-28T08:41:44.454Z,89.83
2019-02-28T08:44:12.230Z,86.70
2019-02-28T08:46:40.149Z,90.73
2019-02-28T08:49:08.151Z,84.40
2019-02-28T08:51:35.964Z,90.60
2019-02-28T08:54:06.049Z,96.53
2019-02-28T08:56:37.813Z,92.60
2019-02-28T08:59:11.720Z,90.20
2019-02-28T09:01:40.046Z,91.90
2019-02-28T09:04:05.854Z,92.13
2019-02-28T09:06:33.786Z,90.30
2019-02-28T09:09:01.866Z,83.13
2019-02-28T09:11:29.660Z,80.53
2019-02-28T09:13:57.577Z,86.37
2019-02-28T09:16:25.591Z,84.93
2019-02-28T09:18:53.381Z,90.13
2019-02-28T09:21:21.190Z,84.27
2019-02-28T09:23:49.113Z,87.47
2019-02-28T09:26:16.891Z,87.20
2019-02-28T09:28:47.489Z,88.73
2019-02-28T09:31:14.519Z,86.80
2019-02-28T09:33:42.343Z,83.40
2019-02-28T09:36:10.292Z,88.97
2019-02-28T09:38:38.103Z,86.97
2019-02-28T09:41:06.040Z,86.60
2019-02-28T09:43:33.869Z,86.47
2019-02-28T09:46:03.057Z,88.37
2019-02-28T09:48:34.017Z,92.50
2019-02-28T09:51:00.925Z,83.93
2019-02-28T09:53:28.725Z,89.53
2019-02-28T09:55:57.760Z,84.93
2019-02-28T09:58:29.318Z,86.73
2019-02-28T10:00:57.212Z,86.53
2019-02-28T10:03:25.004Z,81.67
2019-02-28T10:05:52.935Z,81.30
2019-02-28T10:08:21.811Z,84.73
2019-02-28T10:10:52.485Z,83.47
2019-02-28T10:13:19.617Z,80.70
2019-02-28T10:15:47.544Z,82.63
2019-02-28T10:18:15.306Z,80.90
2019-02-28T10:20:43.254Z,78.70
2019-02-28T10:23:11.011Z,80.57
2019-02-28T10:25:43.360Z,72.63
2019-02-28T10:28:08.793Z,75.30
2019-02-28T10:30:37.901Z,67.80
2019-02-28T10:33:05.700Z,63.37
2019-02-28T10:35:36.683Z,66.60
2019-02-28T10:38:05.063Z,64.20
2019-02-28T10:40:33.061Z,66.23
2019-02-28T10:43:00.852Z,58.40
2019-02-28T10:45:28.952Z,62.53
2019-02-28T10:47:56.882Z,63.50
2019-02-28T10:50:25.948Z,52.40
2019-02-28T10:52:53.896Z,55.87
2019-02-28T10:55:22.464Z,55.73
2019-02-28T10:57:51.114Z,55.07
2019-02-28T11:00:29.484Z,53.80
2019-02-28T11:03:01.610Z,53.87
2019-02-28T11:05:31.268Z,50.50
2019-02-28T11:08:00.493Z,50.53
2019-02-28T11:10:35.417Z,56.10
2019-02-28T11:13:07.764Z,54.93
2019-02-28T11:15:35.741Z,61.90
2019-02-28T11:18:08.558Z,59.93
2019-02-28T11:20:36.374Z,67.43
2019-02-28T11:23:04.503Z,61.30
2019-02-28T11:25:35.528Z,71.77
2019-02-28T11:28:02.429Z,69.23
2019-02-28T11:30:30.569Z,73.27
2019-02-28T11:33:03.003Z,73.60
2019-02-28T11:35:30.947Z,80.27
2019-02-28T11:37:59.637Z,77.43
2019-02-28T11:40:28.568Z,84.60
2019-02-28T11:42:59.436Z,90.40
2019-02-28T11:45:27.684Z,89.73
2019-02-28T11:47:57.760Z,90.53
2019-02-28T11:50:25.674Z,82.10
2019-02-28T11:52:53.620Z,89.03
2019-02-28T11:55:21.746Z,84.60
2019-02-28T11:57:49.912Z,83.57
2019-02-28T12:00:21.076Z,83.47
2019-02-28T12:02:53.345Z,81.60
2019-02-28T12:05:18.939Z,85.10
2019-02-28T12:07:46.736Z,77.63
2019-02-28T12:10:14.661Z,69.87
2019-02-28T12:12:44.715Z,71.00
2019-02-28T12:15:14.304Z,66.63
2019-02-28T12:17:42.312Z,70.07
2019-02-28T12:20:11.875Z,61.50
2019-02-28T12:22:39.699Z,53.73
2019-02-28T12:25:10.420Z,51.30
2019-02-28T12:27:38.458Z,52.20
2019-02-28T12:30:11.069Z,49.70
2019-02-28T12:32:40.350Z,54.40
2019-02-28T12:35:08.930Z,43.90
2019-02-28T12:37:36.732Z,38.60
2019-02-28T12:40:10.043Z,44.40
2019-02-28T12:42:36.990Z,35.67
2019-02-28T12:45:09.029Z,24.40
2019-02-28T12:47:38.580Z,29.87
2019-02-28T12:50:08.805Z,22.83
2019-02-28T12:52:36.843Z,26.67
2019-02-28T12:55:06.680Z,29.63
2019-02-28T12:57:34.503Z,17.53
2019-02-28T13:00:04.723Z,17.10
2019-02-28T13:02:33.022Z,17.73
2019-02-28T13:05:00.823Z,23.50
2019-02-28T13:07:30.485Z,19.93
2019-02-28T13:09:58.691Z,20.80
2019-02-28T13:12:26.485Z,17.50
2019-02-28T13:14:54.839Z,18.13
2019-02-28T13:17:22.728Z,24.17
2019-02-28T13:19:53.206Z,11.27
2019-02-28T13:22:23.494Z,12.23
2019-02-28T13:24:50.299Z,16.00
2019-02-28T13:27:18.071Z,16.67
2019-02-28T13:29:46.037Z,16.30
2019-02-28T13:32:13.835Z,10.10
2019-02-28T13:34:41.784Z,15.00
2019-02-28T13:37:10.019Z,15.50
2019-02-28T13:39:38.026Z,13.93
2019-02-28T13:42:07.528Z,13.13
2019-02-28T13:44:36.326Z,13.53
2019-02-28T13:47:09.394Z,10.13
2019-02-28T13:49:36.177Z,14.23
2019-02-28T13:52:06.086Z,15.93
2019-02-28T13:54:34.001Z,14.17
2019-02-28T13:57:08.103Z,22.13
2019-02-28T13:59:31.888Z,11.87
2019-02-28T14:02:00.652Z,14.10
2019-02-28T14:04:28.662Z,15.17
2019-02-28T14:06:56.812Z,16.73
2019-02-28T14:09:24.921Z,14.00
2019-02-28T14:11:53.175Z,16.20
2019-02-28T14:14:22.278Z,15.63
2019-02-28T14:17:09.748Z,20.37
2019-02-28T14:19:37.815Z,12.53
2019-02-28T14:22:08.519Z,13.70
2019-02-28T14:24:35.308Z,15.13
2019-02-28T14:27:03.309Z,12.67
2019-02-28T14:29:31.075Z,12.63
2019-02-28T14:31:58.870Z,18.40
2019-02-28T14:34:27.220Z,14.43
2019-02-28T14:36:55.303Z,12.67
2019-02-28T14:39:23.076Z,13.57
2019-02-28T14:41:50.885Z,13.77
2019-02-28T14:44:18.823Z,12.33
2019-02-28T14:46:49.766Z,15.93
2019-02-28T14:49:18.297Z,15.10
2019-02-28T14:51:46.082Z,18.17
2019-02-28T14:54:14.085Z,16.63
2019-02-28T14:56:42.243Z,16.43
2019-02-28T14:59:11.018Z,15.17
2019-02-28T15:01:42.297Z,13.83
2019-02-28T15:04:10.217Z,13.97
2019-02-28T15:06:38.230Z,19.07
2019-02-28T15:09:15.903Z,14.90
2019-02-28T15:11:46.904Z,16.07
2019-02-28T15:14:13.987Z,18.93
2019-02-28T15:16:41.778Z,15.60
2019-02-28T15:19:10.836Z,11.10
2019-02-28T15:21:42.353Z,13.17
2019-02-28T15:24:09.726Z,9.30
2019-02-28T15:26:37.827Z,7.53
2019-02-28T15:29:05.597Z,6.47
2019-02-28T15:31:33.573Z,6.40
2019-02-28T15:34:02.292Z,5.93
2019-02-28T15:36:32.434Z,5.30
2019-02-28T15:39:00.260Z,10.00
2019-02-28T15:41:30.720Z,12.53
2019-02-28T15:43:58.017Z,12.80
2019-02-28T15:46:25.808Z,10.97
2019-02-28T15:48:53.761Z,12.03
2019-02-28T15:51:21.551Z,14.80
2019-02-28T15:53:50.355Z,12.10
2019-02-28T15:56:20.056Z,16.30
2019-02-28T15:58:48.000Z,14.50
2019-02-28T16:01:15.910Z,14.30
2019-02-28T16:03:43.988Z,14.50
2019-02-28T16:06:11.773Z,13.93
2019-02-28T16:08:41.915Z,18.77
2019-02-28T16:11:09.517Z,14.77
2019-02-28T16:13:37.316Z,17.60
2019-02-28T16:16:05.258Z,12.97
2019-02-28T16:18:33.267Z,15.30
2019-02-28T16:21:03.505Z,15.97
2019-02-28T16:23:31.082Z,14.07
2019-02-28T16:25:59.108Z,14.70
2019-02-28T16:28:26.887Z,15.07
2019-02-28T16:30:54.697Z,17.43
2019-02-28T16:33:24.715Z,16.30
2019-02-28T16:35:52.394Z,13.97
2019-02-28T16:38:20.189Z,13.20
2019-02-28T16:40:49.905Z,11.67
2019-02-28T16:43:20.819Z,13.00
2019-02-28T16:45:48.850Z,17.17
2019-02-28T16:48:16.917Z,13.53
2019-02-28T16:50:44.741Z,9.73
2019-02-28T16:53:16.163Z,12.60
2019-02-28T16:55:42.449Z,16.37
2019-02-28T16:58:10.461Z,11.60
2019-02-28T17:00:39.555Z,12.70
2019-02-28T17:03:08.388Z,14.20
2019-02-28T17:05:36.189Z,14.17
2019-02-28T17:08:04.394Z,12.17
2019-02-28T17:10:36.504Z,16.20
2019-02-28T17:13:42.995Z,13.57
2019-02-28T17:16:17.233Z,14.13
2019-02-28T17:18:45.052Z,11.60
2019-02-28T17:21:16.692Z,12.37
2019-02-28T17:23:45.267Z,14.20
2019-02-28T17:26:13.197Z,11.83
2019-02-28T17:29:04.420Z,15.67
2019-02-28T17:31:47.979Z,12.40
2019-02-28T17:34:23.692Z,11.33
2019-02-28T17:36:50.528Z,11.43
2019-02-28T17:39:18.422Z,14.10
2019-02-28T17:41:47.589Z,16.70
2019-02-28T17:45:15.587Z,22.33
2019-02-28T17:48:35.798Z,22.93
2019-02-28T17:51:32.848Z,27.10
2019-02-28T17:54:58.186Z,33.33
2019-02-28T17:57:59.777Z,37.80
2019-02-28T18:01:20.495Z,28.70
2019-02-28T18:04:20.982Z,25.77
2019-02-28T18:07:26.666Z,16.90
2019-02-28T18:10:55.773Z,14.07
2019-02-28T18:14:14.620Z,13.70
2019-02-28T18:17:55.932Z,11.93
2019-02-28T18:25:06.572Z,13.20
2019-02-28T18:28:27.352Z,9.07
2019-02-28T18:31:19.157Z,14.17
2019-02-28T18:33:54.194Z,13.30
2019-02-28T18:36:26.029Z,9.50
2019-02-28T18:38:54.194Z,11.23
2019-02-28T18:41:22.310Z,12.33
2019-02-28T18:43:50.308Z,17.20
2019-02-28T18:46:18.363Z,15.60
2019-02-28T18:48:51.275Z,14.53
2019-02-28T18:51:19.167Z,16.63
2019-02-28T18:53:47.196Z,18.93
2019-02-28T18:56:15.290Z,15.23
2019-02-28T18:58:43.343Z,15.90
2019-02-28T19:01:11.506Z,20.00
2019-02-28T19:03:39.336Z,17.53
2019-02-28T19:06:07.133Z,24.23
2019-02-28T19:08:35.227Z,17.90
2019-02-28T19:11:06.399Z,21.10
2019-02-28T19:13:34.365Z,18.50
2019-02-28T19:16:02.411Z,22.20
2019-02-28T19:18:30.311Z,19.70
2019-02-28T19:20:58.182Z,24.30
2019-02-28T19:23:28.277Z,24.50
2019-02-28T19:25:56.276Z,21.00
2019-02-28T19:28:24.061Z,21.10
2019-02-28T19:30:51.939Z,21.23
2019-02-28T19:33:20.001Z,22.10
2019-02-28T19:35:47.842Z,17.43
2019-02-28T19:38:15.822Z,19.73
2019-02-28T19:40:43.605Z,20.03
2019-02-28T19:43:11.864Z,18.60
2019-02-28T19:45:41.261Z,17.20
2019-02-28T19:48:10.839Z,23.07
2019-02-28T19:50:38.768Z,17.10
2019-02-28T19:53:06.730Z,20.93
2019-02-28T19:55:35.176Z,17.57
2019-02-28T19:58:03.070Z,16.90
2019-02-28T20:00:31.033Z,16.87
2019-02-28T20:02:59.003Z,17.87
2019-02-28T20:05:26.897Z,20.23
2019-02-28T20:07:54.716Z,16.80
2019-02-28T20:10:22.748Z,15.93
2019-02-28T20:12:50.556Z,15.63
2019-02-28T20:15:20.710Z,17.30
2019-02-28T20:17:48.612Z,21.70
2019-02-28T20:20:16.814Z,18.87
2019-02-28T20:22:44.817Z,15.80
2019-02-28T20:25:13.291Z,16.20
2019-02-28T20:27:41.274Z,14.43
2019-02-28T20:30:12.620Z,19.33
2019-02-28T20:32:40.652Z,17.50
2019-02-28T20:35:08.856Z,19.00
2019-02-28T20:37:36.803Z,21.57
2019-02-28T20:40:08.093Z,19.83
2019-02-28T20:42:36.101Z,22.97
2019-02-28T20:45:05.741Z,24.33
2019-02-28T20:47:33.507Z,22.37
2019-02-28T20:50:01.476Z,26.93
2019-02-28T20:52:29.286Z,23.97
2019-02-28T20:54:57.112Z,21.60
2019-02-28T20:57:25.090Z,25.77
2019-02-28T20:59:52.883Z,23.13
2019-02-28T21:02:22.054Z,23.93
2019-02-28T21:04:49.865Z,20.43
2019-02-28T21:07:17.988Z,21.90
2019-02-28T21:09:47.719Z,22.13
2019-02-28T21:12:15.513Z,23.90
2019-02-28T21:14:43.331Z,32.70
2019-02-28T21:17:11.351Z,22.50
2019-02-28T21:19:39.289Z,23.63
2019-02-28T21:22:07.185Z,19.63
2019-02-28T21:24:35.805Z,18.93
2019-02-28T21:27:03.929Z,22.33
2019-02-28T21:29:33.324Z,24.70
2019-02-28T21:32:01.321Z,21.93
2019-02-28T21:34:29.180Z,26.33
2019-02-28T21:36:59.163Z,25.30
2019-02-28T21:39:27.074Z,23.87
2019-02-28T21:41:54.874Z,23.50
2019-02-28T21:44:22.675Z,24.57
2019-02-28T21:46:50.598Z,21.13
2019-02-28T21:49:18.395Z,28.73
2019-02-28T21:51:46.165Z,24.97
2019-02-28T21:54:15.850Z,27.23
2019-02-28T21:56:43.998Z,24.20
2019-02-28T21:59:11.820Z,23.63
2019-02-28T22:01:39.767Z,28.17
2019-02-28T22:04:07.882Z,26.00
2019-02-28T22:06:35.821Z,25.20
2019-02-28T22:09:05.557Z,25.27
2019-02-28T22:11:33.350Z,26.90
2019-02-28T22:14:02.407Z,27.13
2019-02-28T22:16:30.340Z,29.03
2019-02-28T22:18:58.162Z,22.10
2019-02-28T22:21:26.113Z,23.83
2019-02-28T22:23:53.954Z,25.03
2019-02-28T22:26:22.155Z,26.10
2019-02-28T22:28:49.929Z,30.23
2019-02-28T22:31:43.970Z,24.43
2019-02-28T22:34:28.221Z,25.90
2019-02-28T22:36:57.326Z,30.00
2019-02-28T22:39:26.714Z,27.60
2019-02-28T22:41:54.579Z,29.10
2019-02-28T22:44:22.589Z,26.83
2019-02-28T22:46:50.363Z,33.17
2019-02-28T22:49:18.436Z,25.00
2019-02-28T22:51:46.418Z,30.17
2019-02-28T22:54:14.198Z,26.37
2019-02-28T22:56:41.982Z,30.47
2019-02-28T22:59:10.025Z,31.00
2019-02-28T23:01:40.051Z,27.97
2019-02-28T23:04:08.025Z,30.20
2019-02-28T23:06:35.861Z,23.50
2019-02-28T23:09:05.278Z,34.90
2019-02-28T23:11:33.284Z,31.97
2019-02-28T23:14:01.069Z,33.50
2019-02-28T23:16:28.844Z,30.17
2019-02-28T23:18:57.932Z,37.50
2019-02-28T23:21:25.726Z,33.50
2019-02-28T23:23:53.719Z,32.27
2019-02-28T23:26:25.960Z,38.40
2019-02-28T23:29:13.307Z,39.80
2019-02-28T23:32:16.016Z,41.57
2019-02-28T23:34:51.424Z,38.67
2019-02-28T23:37:19.451Z,41.70
2019-02-28T23:39:47.267Z,43.13
2019-02-28T23:42:15.044Z,40.63
2019-02-28T23:44:43.064Z,39.97
2019-02-28T23:47:11.017Z,40.13
2019-02-28T23:49:38.791Z,41.47
2019-02-28T23:52:06.765Z,43.63
2019-02-28T23:54:34.523Z,42.23
2019-02-28T23:57:02.334Z,41.33
2019-02-28T23:59:30.263Z,45.77
